Time;durP1;ratioP1;P1;durP2;ratioP2;P2;SDS_P1;SDS_P2;PMS_P1;PMS_P2;Temp;Humidity;BMP_temperature;BMP_pressure;BME280_temperature;BME280_humidity;BME280_pressure;Samples;Min_cycle;Max_cycle;Signal;HPM_P1;HPM_P2
2022/04/04 00:00:51;;;;;;;3.87;2.27;;;;;;;-0.04;58.79;99258.47;5090847;28;40410;-79
2022/04/04 00:03:20;;;;;;;3.10;2.50;;;;;;;-0.04;58.51;99256.72;5090339;28;43814;-80
2022/04/04 00:05:48;;;;;;;3.60;3.03;;;;;;;-0.04;58.23;99261.06;5090841;28;41319;-79
2022/04/04 00:08:16;;;;;;;4.67;2.70;;;;;;;-0.04;58.21;99250.66;5092415;28;40061;-78
2022/04/04 00:10:45;;;;;;;3.43;2.87;;;;;;;-0.07;58.08;99256.75;5090909;28;40642;-81
2022/04/04 00:13:13;;;;;;;2.40;2.17;;;;;;;-0.20;57.57;99241.31;5090405;28;41738;-79
2022/04/04 00:15:41;;;;;;;3.10;2.47;;;;;;;-0.05;57.05;99269.75;5090712;28;42275;-79
2022/04/04 00:18:11;;;;;;;3.57;2.43;;;;;;;-0.19;57.25;99250.84;5091063;28;38975;-78
2022/04/04 00:20:39;;;;;;;2.70;2.00;;;;;;;-0.09;56.91;99275.88;5074108;28;40575;-79
2022/04/04 00:23:11;;;;;;;3.50;2.00;;;;;;;-0.12;57.46;99265.50;5073618;28;41765;-80
2022/04/04 00:25:39;;;;;;;2.47;1.90;;;;;;;-0.11;58.34;99256.81;5074286;28;41034;-77
2022/04/04 00:28:09;;;;;;;2.97;2.70;;;;;;;-0.11;58.28;99264.63;5074018;28;40088;-81
2022/04/04 00:30:37;;;;;;;2.10;1.90;;;;;;;-0.11;58.44;99246.41;5073614;28;40659;-79
2022/04/04 00:33:05;;;;;;;5.20;2.73;;;;;;;-0.23;58.01;99234.41;5074180;28;42841;-78
2022/04/04 00:35:33;;;;;;;2.47;2.17;;;;;;;-0.13;57.83;99256.00;5073869;28;41572;-79
2022/04/04 00:38:02;;;;;;;2.03;1.80;;;;;;;-0.15;57.44;99257.75;5091069;28;38974;-78
2022/04/04 00:40:30;;;;;;;2.90;2.33;;;;;;;-0.17;58.04;99243.88;5089902;28;40666;-79
2022/04/04 00:42:57;;;;;;;3.07;2.57;;;;;;;-0.19;58.15;99243.91;5091899;28;42682;-80
2022/04/04 00:45:26;;;;;;;4.57;2.10;;;;;;;-0.19;58.08;99245.66;5090339;28;42011;-78
2022/04/04 00:47:54;;;;;;;3.73;2.20;;;;;;;-0.21;57.80;99250.00;5091558;28;41333;-80
2022/04/04 00:50:23;;;;;;;3.13;1.83;;;;;;;-0.22;58.33;99246.53;5089778;28;42699;-79
2022/04/04 00:52:52;;;;;;;2.47;2.17;;;;;;;-0.24;59.36;99232.69;5091628;28;42966;-80
2022/04/04 00:55:20;;;;;;;2.80;1.73;;;;;;;-0.23;60.82;99233.53;5090434;28;41148;-80
2022/04/04 00:57:49;;;;;;;5.43;2.80;;;;;;;-0.24;60.10;99232.69;5124303;27;40468;-80
2022/04/04 01:00:17;;;;;;;4.07;2.30;;;;;;;-0.23;60.37;99234.41;5089649;28;40441;-80
2022/04/04 01:02:47;;;;;;;3.33;2.13;;;;;;;-0.22;60.09;99232.66;5073220;28;43508;-79
2022/04/04 01:05:15;;;;;;;3.70;2.40;;;;;;;-0.44;60.01;99193.94;5091435;28;42963;-79
2022/04/04 01:07:44;;;;;;;2.23;1.90;;;;;;;-0.24;60.77;99226.63;5090295;28;40176;-79
2022/04/04 01:10:11;;;;;;;4.50;3.20;;;;;;;-0.43;60.90;99182.63;5089251;28;42198;-79
2022/04/04 01:12:49;;;;;;;4.13;2.73;;;;;;;-0.25;60.56;99222.31;5090383;28;42263;-78
2022/04/04 01:15:17;;;;;;;2.87;2.40;;;;;;;-0.25;60.59;99219.72;5087429;28;42501;-79
2022/04/04 01:17:46;;;;;;;3.37;2.30;;;;;;;-0.25;60.63;99214.50;5073384;28;38519;-80
2022/04/04 01:20:14;;;;;;;2.43;2.20;;;;;;;-0.28;60.27;99220.63;5075564;28;41877;-80
2022/04/04 01:22:46;;;;;;;3.70;2.27;;;;;;;-0.28;59.75;99222.34;5073408;28;43035;-79
2022/04/04 01:25:16;;;;;;;3.87;2.40;;;;;;;-0.31;59.76;99215.44;5073548;28;41085;-81
2022/04/04 01:27:46;;;;;;;3.17;2.00;;;;;;;-0.32;60.03;99215.47;5090528;28;40161;-80
2022/04/04 01:30:14;;;;;;;3.10;2.47;;;;;;;-0.33;59.82;99211.13;5069462;28;42655;-80
2022/04/04 01:32:42;;;;;;;3.17;2.17;;;;;;;-0.34;61.34;99205.06;5069428;28;43679;-78
2022/04/04 01:35:10;;;;;;;4.07;2.27;;;;;;;-0.34;62.04;99191.19;5086434;28;40984;-78
2022/04/04 01:37:38;;;;;;;3.73;3.00;;;;;;;-0.44;61.54;99188.72;5086950;28;40934;-80
2022/04/04 01:40:07;;;;;;;3.90;2.43;;;;;;;-0.36;62.43;99191.22;5063673;28;40941;-80
2022/04/04 01:42:37;;;;;;;4.43;2.20;;;;;;;-0.43;63.02;99174.84;5073007;28;41834;-81
2022/04/04 01:45:07;;;;;;;3.87;2.53;;;;;;;-0.37;62.92;99177.34;5089590;28;42493;-79
2022/04/04 01:47:35;;;;;;;3.60;2.73;;;;;;;-0.45;62.10;99176.59;5090921;28;40001;-79
2022/04/04 01:50:03;;;;;;;3.30;2.00;;;;;;;-0.37;62.04;99190.34;5073101;28;40698;-80
2022/04/04 01:52:31;;;;;;;4.13;2.70;;;;;;;-0.38;63.24;99188.66;5089700;28;42712;-79
2022/04/04 01:54:59;;;;;;;3.60;2.37;;;;;;;-0.38;62.67;99188.66;5073010;28;42056;-80
2022/04/04 01:57:26;;;;;;;3.00;2.50;;;;;;;-0.38;62.30;99183.47;5062298;28;38800;-79
2022/04/04 01:59:56;;;;;;;3.73;2.37;;;;;;;-0.42;61.95;99186.09;5086832;28;41883;-78
2022/04/04 02:02:23;;;;;;;2.73;1.97;;;;;;;-0.54;62.38;99158.50;5090848;28;43792;-80
2022/04/04 02:04:51;;;;;;;3.83;2.80;;;;;;;-0.44;62.02;99183.53;5090648;28;42516;-79
2022/04/04 02:07:19;;;;;;;3.10;2.13;;;;;;;-0.42;62.89;99173.97;5089169;28;39599;-79
2022/04/04 02:09:48;;;;;;;2.90;2.40;;;;;;;-0.46;61.80;99176.59;5072309;28;41134;-79
2022/04/04 02:12:16;;;;;;;3.10;2.80;;;;;;;-0.43;62.96;99177.44;5090224;28;42717;-79
2022/04/04 02:14:44;;;;;;;3.63;2.80;;;;;;;-0.42;62.38;99175.69;5090917;28;43168;-79
2022/04/04 02:17:13;;;;;;;3.27;2.37;;;;;;;-0.44;62.07;99183.53;5074871;28;38866;-79
2022/04/04 02:19:40;;;;;;;5.17;2.40;;;;;;;-0.46;62.55;99169.66;5107557;28;43320;-79
2022/04/04 02:22:10;;;;;;;3.00;2.20;;;;;;;-0.46;61.91;99174.88;5108673;28;43284;-80
2022/04/04 02:24:37;;;;;;;4.63;2.50;;;;;;;-0.47;61.37;99183.56;5107736;28;42536;-78
2022/04/04 02:27:06;;;;;;;4.60;2.27;;;;;;;-0.51;61.14;99181.03;5113546;28;39150;-79
2022/04/04 02:29:34;;;;;;;4.70;2.63;;;;;;;-0.52;61.04;99185.38;5070021;28;41727;-78
2022/04/04 02:32:02;;;;;;;2.20;2.00;;;;;;;-0.60;61.05;99186.31;5073578;28;41743;-79
2022/04/04 02:34:31;;;;;;;3.77;2.50;;;;;;;-0.59;61.21;99188.91;5072504;28;42180;-78
2022/04/04 02:36:59;;;;;;;3.10;2.20;;;;;;;-0.64;61.29;99182.06;5078676;28;40141;-78
2022/04/04 02:39:27;;;;;;;3.13;2.23;;;;;;;-0.65;61.30;99182.94;5093885;28;41742;-78
2022/04/04 02:41:55;;;;;;;3.80;2.87;;;;;;;-0.80;61.37;99157.97;5092473;28;44148;-79
2022/04/04 02:44:22;;;;;;;4.07;2.47;;;;;;;-0.72;61.33;99179.53;5075610;28;42163;-78
2022/04/04 02:46:50;;;;;;;3.10;2.30;;;;;;;-0.77;61.47;99169.22;5092099;28;40412;-79
2022/04/04 02:49:18;;;;;;;3.03;2.20;;;;;;;-0.85;63.19;99142.41;5075932;28;40755;-79
2022/04/04 02:51:47;;;;;;;3.57;3.03;;;;;;;-0.72;64.31;99153.53;5075274;28;41646;-78
2022/04/04 02:54:14;;;;;;;2.77;2.47;;;;;;;-0.72;63.46;99161.34;5093675;28;42189;-77
2022/04/04 02:56:41;;;;;;;4.13;3.20;;;;;;;-0.75;63.20;99146.66;5092741;28;39868;-79
2022/04/04 02:59:10;;;;;;;2.67;2.37;;;;;;;-0.73;63.04;99144.88;5092270;28;42573;-77
2022/04/04 03:01:37;;;;;;;4.00;2.87;;;;;;;-0.84;63.16;99136.34;5109233;28;41695;-77
2022/04/04 03:04:06;;;;;;;4.73;3.13;;;;;;;-0.72;63.04;99156.13;5091775;28;42393;-78
2022/04/04 03:06:35;;;;;;;2.83;1.93;;;;;;;-0.72;62.66;99166.53;5075400;28;39145;-78
2022/04/04 03:09:04;;;;;;;3.13;2.60;;;;;;;-0.75;62.42;99167.47;5092005;28;42414;-78
2022/04/04 03:11:32;;;;;;;3.97;2.83;;;;;;;-0.78;62.75;99156.22;5074004;28;42832;-78
2022/04/04 03:13:59;;;;;;;3.40;2.97;;;;;;;-0.72;62.21;99166.53;5091893;28;42336;-79
2022/04/04 03:16:27;;;;;;;4.13;2.83;;;;;;;-0.69;62.85;99156.09;5090969;28;38864;-78
2022/04/04 03:18:55;;;;;;;3.67;3.23;;;;;;;-0.70;62.69;99164.78;5091862;28;40742;-78
2022/04/04 03:21:23;;;;;;;4.57;2.73;;;;;;;-0.70;62.44;99162.19;5091648;28;43071;-78
2022/04/04 03:23:51;;;;;;;5.53;3.10;;;;;;;-0.68;63.07;99157.81;5119975;27;42209;-77
2022/04/04 03:26:20;;;;;;;4.53;2.80;;;;;;;-0.68;62.67;99156.97;5088824;28;38847;-77
2022/04/04 03:28:48;;;;;;;3.47;2.77;;;;;;;-0.69;62.47;99161.31;5092855;28;42269;-78
2022/04/04 03:31:15;;;;;;;3.90;2.97;;;;;;;-0.75;62.15;99151.00;5074519;28;42781;-78
2022/04/04 03:33:44;;;;;;;3.50;2.47;;;;;;;-0.73;62.36;99163.06;5091018;28;42550;-79
2022/04/04 03:36:12;;;;;;;3.50;2.90;;;;;;;-0.75;63.01;99156.19;5074292;28;38834;-77
2022/04/04 03:38:40;;;;;;;3.87;3.10;;;;;;;-0.87;62.66;99139.00;5125893;27;42038;-78
2022/04/04 03:41:09;;;;;;;4.77;3.50;;;;;;;-0.76;63.22;99149.28;5074184;28;41734;-79
2022/04/04 03:43:38;;;;;;;4.23;2.73;;;;;;;-0.78;63.77;99148.44;5092689;28;42098;-77
2022/04/04 03:46:06;;;;;;;7.60;3.50;;;;;;;-0.79;63.32;99144.09;5091103;28;39906;-77
2022/04/04 03:48:33;;;;;;;3.63;3.30;;;;;;;-0.97;63.13;99118.31;5091404;28;41587;-78
2022/04/04 03:51:01;;;;;;;4.03;3.10;;;;;;;-0.98;63.67;99114.00;5090892;28;43630;-79
2022/04/04 03:53:29;;;;;;;3.03;2.73;;;;;;;-0.82;63.28;99139.78;5091499;28;42413;-77
2022/04/04 03:55:57;;;;;;;5.70;3.87;;;;;;;-0.84;63.22;99136.34;5090725;28;38975;-78
2022/04/04 03:58:24;;;;;;;4.20;2.60;;;;;;;-0.95;63.54;99117.44;5122715;27;42709;-78
2022/04/04 04:00:54;;;;;;;8.63;4.33;;;;;;;-0.85;63.35;99129.44;5073560;28;42788;-77
2022/04/04 04:03:21;;;;;;;6.33;3.63;;;;;;;-0.87;63.08;99132.94;5070443;28;41134;-78
2022/04/04 04:05:49;;;;;;;6.33;3.93;;;;;;;-0.89;62.97;99126.91;5071545;28;40144;-77
2022/04/04 04:08:16;;;;;;;5.53;2.97;;;;;;;-1.22;62.76;99078.78;5053201;28;43353;-78
2022/04/04 04:10:44;;;;;;;4.13;2.90;;;;;;;-0.95;63.14;99119.16;5091384;28;43355;-77
2022/04/04 04:13:12;;;;;;;4.90;3.73;;;;;;;-1.03;63.80;99105.41;5073376;28;41046;-77
2022/04/04 04:15:39;;;;;;;5.20;3.77;;;;;;;-0.97;64.64;99103.59;5090646;28;40125;-77
2022/04/04 04:18:09;;;;;;;5.10;4.23;;;;;;;-1.06;64.68;99087.25;5091843;28;42865;-77
2022/04/04 04:20:37;;;;;;;5.07;3.93;;;;;;;-0.94;64.70;99097.50;5072518;28;43391;-78
2022/04/04 04:23:07;;;;;;;5.03;4.23;;;;;;;-0.91;64.76;99105.25;5090288;28;41399;-78
2022/04/04 04:25:37;;;;;;;4.47;3.50;;;;;;;-0.91;64.27;99106.13;5090228;28;38954;-77
2022/04/04 04:28:07;;;;;;;5.80;3.77;;;;;;;-0.97;64.01;99106.19;5091168;28;41546;-78
2022/04/04 04:30:34;;;;;;;4.53;3.67;;;;;;;-0.96;63.89;99114.84;5073518;28;41501;-78
2022/04/04 04:33:04;;;;;;;6.97;3.23;;;;;;;-1.03;63.59;99116.66;5091628;28;43083;-78
2022/04/04 04:35:33;;;;;;;4.03;3.40;;;;;;;-1.05;63.53;99112.34;5089946;28;39983;-78
2022/04/04 04:38:01;;;;;;;5.10;3.30;;;;;;;-1.10;63.89;99108.06;5072653;28;41829;-77
2022/04/04 04:40:29;;;;;;;3.67;3.07;;;;;;;-1.12;64.26;99103.78;5073362;28;42019;-77
2022/04/04 04:42:58;;;;;;;5.30;4.10;;;;;;;-1.15;63.90;99102.09;5090882;28;42120;-77
2022/04/04 04:45:27;;;;;;;4.23;3.13;;;;;;;-1.27;63.82;99089.25;5090031;28;41068;-77
2022/04/04 04:47:55;;;;;;;5.80;4.77;;;;;;;-1.19;63.74;99102.13;5073302;28;40487;-77
2022/04/04 04:50:23;;;;;;;4.37;3.47;;;;;;;-1.19;64.23;99102.13;5090198;28;43759;-78
2022/04/04 04:52:56;;;;;;;4.63;3.43;;;;;;;-1.19;64.30;99097.78;5056744;28;40883;-77
2022/04/04 04:55:25;;;;;;;4.77;3.80;;;;;;;-1.16;65.83;99095.16;5073318;28;39088;-77
2022/04/04 04:57:54;;;;;;;5.13;3.87;;;;;;;-1.15;65.75;99090.81;5089466;28;41672;-77
2022/04/04 05:00:25;;;;;;;7.27;4.63;;;;;;;-1.12;64.98;99099.47;5089443;28;44268;-78
2022/04/04 05:03:24;;;;;;;6.17;4.60;;;;;;;-1.11;64.75;99101.16;5073146;28;41660;-78
2022/04/04 05:05:52;;;;;;;7.87;4.83;;;;;;;-1.05;65.11;99088.97;5072725;28;41340;-77
2022/04/04 05:08:21;;;;;;;6.50;4.93;;;;;;;-1.01;65.39;99081.13;5073184;28;40877;-77
2022/04/04 05:10:49;;;;;;;7.10;4.87;;;;;;;-0.95;64.91;99080.16;5089561;28;42617;-77
2022/04/04 05:13:18;;;;;;;6.40;4.30;;;;;;;-0.91;64.58;99081.88;5089911;28;42184;-77
2022/04/04 05:15:46;;;;;;;7.50;4.33;;;;;;;-0.87;64.24;99088.75;5089716;28;40988;-77
2022/04/04 05:18:15;;;;;;;5.73;4.13;;;;;;;-0.82;64.26;99081.75;5072626;28;40870;-77
2022/04/04 05:20:43;;;;;;;6.03;4.43;;;;;;;-0.77;64.10;99090.34;5089348;28;42899;-77
2022/04/04 05:23:11;;;;;;;4.07;3.63;;;;;;;-0.72;63.96;99094.59;5071683;28;42313;-78
2022/04/04 05:25:40;;;;;;;4.27;3.37;;;;;;;-0.65;64.16;99084.97;5072804;28;38888;-78
2022/04/04 05:28:08;;;;;;;5.90;3.57;;;;;;;-0.59;64.23;99084.88;5089684;28;42594;-76
2022/04/04 05:30:35;;;;;;;6.67;4.27;;;;;;;-0.51;64.57;99082.19;5090655;28;43276;-77
2022/04/04 05:33:03;;;;;;;6.63;4.60;;;;;;;-0.40;64.27;99083.75;5072521;28;41260;-78
2022/04/04 05:35:31;;;;;;;7.43;4.23;;;;;;;-0.32;63.83;99077.56;5072428;28;38674;-77
2022/04/04 05:37:59;;;;;;;5.97;4.57;;;;;;;-0.19;64.96;99068.66;5072964;28;40766;-77
2022/04/04 05:40:27;;;;;;;7.43;5.73;;;;;;;0.01;64.51;99077.00;5090598;28;43773;-76
2022/04/04 05:42:56;;;;;;;7.53;4.67;;;;;;;0.16;64.90;99076.75;5089552;28;42156;-77
2022/04/04 05:45:24;;;;;;;7.07;5.20;;;;;;;0.35;64.59;99083.38;5072600;28;39592;-76
2022/04/04 05:47:52;;;;;;;8.27;5.57;;;;;;;0.55;64.36;99085.59;5089852;28;41546;-77
2022/04/04 05:50:20;;;;;;;9.47;5.40;;;;;;;0.73;63.79;99076.59;5072324;28;41912;-77
2022/04/04 05:52:47;;;;;;;8.83;5.63;;;;;;;0.98;63.59;99088.25;5089442;28;43151;-76
2022/04/04 05:55:15;;;;;;;8.10;5.47;;;;;;;1.16;63.44;99078.31;5092608;28;38903;-77
2022/04/04 05:57:43;;;;;;;8.27;5.93;;;;;;;1.35;63.11;99087.47;5092576;28;42725;-77
2022/04/04 06:00:14;;;;;;;7.67;6.27;;;;;;;1.56;62.72;99086.13;5075055;28;41630;-77
2022/04/04 06:02:44;;;;;;;10.83;7.33;;;;;;;1.72;62.25;99085.75;5092501;28;41090;-77
2022/04/04 06:05:12;;;;;;;9.53;6.33;;;;;;;1.88;61.78;99090.59;5092510;28;41121;-79
2022/04/04 06:07:40;;;;;;;12.57;6.53;;;;;;;2.04;61.52;99084.09;5090592;28;41413;-77
2022/04/04 06:10:10;;;;;;;8.67;5.90;;;;;;;2.17;61.38;99081.16;5090903;28;42625;-77
2022/04/04 06:12:39;;;;;;;8.10;6.43;;;;;;;2.29;60.88;99077.38;5073690;28;41535;-77
2022/04/04 06:15:08;;;;;;;8.17;6.27;;;;;;;2.39;60.63;99081.47;5091790;28;40724;-77
2022/04/04 06:17:38;;;;;;;9.90;7.33;;;;;;;2.46;60.14;99085.66;5092433;28;41953;-77
2022/04/04 06:20:08;;;;;;;11.30;6.70;;;;;;;2.52;60.04;99084.59;5088598;28;43971;-79
2022/04/04 06:22:37;;;;;;;10.10;7.67;;;;;;;2.61;60.02;99080.88;5092768;28;40976;-77
2022/04/04 06:25:07;;;;;;;11.13;6.67;;;;;;;2.73;59.82;99076.19;5075626;28;38797;-77
2022/04/04 06:27:36;;;;;;;11.57;7.10;;;;;;;2.93;59.51;99086.09;5075820;28;42484;-77
2022/04/04 06:30:04;;;;;;;10.60;7.13;;;;;;;3.01;58.70;99068.41;5093457;28;43685;-80
2022/04/04 06:32:33;;;;;;;11.47;7.40;;;;;;;3.33;58.39;99087.56;5078376;28;43281;-79
2022/04/04 06:35:05;;;;;;;9.57;6.97;;;;;;;3.63;57.68;99081.41;5092282;28;39868;-78
2022/04/04 06:37:33;;;;;;;9.93;6.97;;;;;;;3.83;56.61;99086.03;5074235;28;40704;-80
2022/04/04 06:40:02;;;;;;;9.33;6.53;;;;;;;4.03;56.42;99093.25;5092688;28;43708;-80
2022/04/04 06:42:30;;;;;;;8.33;6.63;;;;;;;4.14;55.97;99080.66;5092941;28;43102;-79
2022/04/04 06:44:58;;;;;;;13.43;7.00;;;;;;;4.22;55.31;99079.47;5092525;28;38964;-81
2022/04/04 06:47:26;;;;;;;9.40;6.73;;;;;;;4.38;54.47;99094.69;5091650;28;40576;-80
2022/04/04 06:49:54;;;;;;;8.90;6.60;;;;;;;4.47;54.71;99100.47;5093548;28;43705;-82
2022/04/04 06:52:23;;;;;;;8.20;6.60;;;;;;;4.54;54.83;99094.13;5073890;28;41272;-80
2022/04/04 06:54:51;;;;;;;9.43;6.67;;;;;;;4.60;54.08;99099.16;5092143;28;39087;-80
2022/04/04 06:57:19;;;;;;;8.27;6.33;;;;;;;4.67;53.87;99094.56;5074662;28;40659;-80
2022/04/04 06:59:48;;;;;;;7.80;6.20;;;;;;;4.74;53.65;99098.69;5093317;28;42564;-80
2022/04/04 07:02:15;;;;;;;7.67;6.30;;;;;;;4.99;53.20;99098.66;5091438;28;43402;-80
2022/04/04 07:04:43;;;;;;;8.87;6.53;;;;;;;5.35;52.59;99096.44;5075244;28;38776;-82
2022/04/04 07:07:11;;;;;;;7.70;5.63;;;;;;;5.78;51.52;99095.66;5092637;28;41438;-82
2022/04/04 07:09:40;;;;;;;7.13;5.70;;;;;;;6.44;48.99;99114.91;5093203;28;42733;-81
2022/04/04 07:12:09;;;;;;;8.77;5.30;;;;;;;7.11;47.92;99096.22;5073991;28;40946;-82
2022/04/04 07:14:36;;;;;;;7.67;4.87;;;;;;;8.04;46.70;99107.69;5104711;28;40051;-84
2022/04/04 07:17:04;;;;;;;7.50;5.60;;;;;;;8.85;44.70;99136.22;5074143;28;40418;-81
2022/04/04 07:19:33;;;;;;;5.67;5.13;;;;;;;9.33;43.42;99140.75;5058317;28;41687;-81
2022/04/04 07:22:00;;;;;;;7.07;5.40;;;;;;;9.48;42.80;99123.22;5090615;28;43139;-80
2022/04/04 07:24:28;;;;;;;7.40;6.20;;;;;;;9.84;41.34;99146.81;5092045;28;38868;-81
2022/04/04 07:26:57;;;;;;;6.77;5.67;;;;;;;10.04;41.72;99135.97;5090291;28;41719;-78
2022/04/04 07:29:25;;;;;;;5.90;5.30;;;;;;;10.12;40.13;99143.50;5091513;28;42128;-79
2022/04/04 07:31:53;;;;;;;6.23;4.30;;;;;;;10.07;40.85;99127.88;5090530;28;41039;-83
2022/04/04 07:34:21;;;;;;;5.20;4.70;;;;;;;10.01;40.56;99125.59;5092180;28;40925;-79
2022/04/04 07:36:49;;;;;;;5.97;5.00;;;;;;;9.93;39.67;99122.50;5090558;28;40956;-78
2022/04/04 07:39:16;;;;;;;5.37;4.87;;;;;;;10.03;39.72;99126.31;5091874;28;43024;-78
2022/04/04 07:41:44;;;;;;;5.97;4.40;;;;;;;10.44;39.20;99127.53;5073167;28;41314;-82
2022/04/04 07:44:13;;;;;;;5.83;4.70;;;;;;;10.77;37.64;99130.00;5074525;28;40025;-79
2022/04/04 07:46:41;;;;;;;4.77;4.37;;;;;;;10.91;37.68;99129.19;5089835;28;41648;-80
2022/04/04 07:49:09;;;;;;;5.07;4.20;;;;;;;10.94;37.15;99110.44;5092625;28;43566;-80
2022/04/04 07:51:37;;;;;;;6.20;4.00;;;;;;;10.97;36.53;99118.22;5090030;28;42180;-84
2022/04/04 07:54:04;;;;;;;4.97;3.80;;;;;;;11.14;36.78;99123.34;5091419;28;40218;-80
2022/04/04 07:56:32;;;;;;;4.63;4.23;;;;;;;11.54;36.83;99126.22;5090962;28;42740;-81
2022/04/04 07:58:59;;;;;;;4.93;4.43;;;;;;;12.10;35.95;99113.84;5074294;28;41799;-81
2022/04/04 08:01:29;;;;;;;4.27;3.67;;;;;;;13.22;33.92;99124.91;5089833;28;42746;-78
2022/04/04 08:03:57;;;;;;;4.23;3.83;;;;;;;14.18;32.63;99126.03;5090557;28;40338;-79
2022/04/04 08:06:25;;;;;;;5.70;4.57;;;;;;;14.92;31.11;99140.97;5072648;28;41745;-79
2022/04/04 08:08:53;;;;;;;6.03;4.13;;;;;;;15.33;30.69;99148.44;5107656;28;41717;-81
2022/04/04 08:11:20;;;;;;;4.03;3.70;;;;;;;15.24;29.88;99134.97;5087642;28;42689;-79
2022/04/04 08:13:48;;;;;;;4.73;4.30;;;;;;;15.13;29.56;99133.13;5070114;28;38933;-80
2022/04/04 08:16:16;;;;;;;6.07;4.13;;;;;;;14.98;29.11;99145.81;5073450;28;42142;-78
2022/04/04 08:18:45;;;;;;;7.67;4.60;;;;;;;15.02;29.69;99119.78;5092090;28;42930;-80
2022/04/04 08:21:15;;;;;;;4.40;3.97;;;;;;;14.99;29.32;99128.00;5089343;28;42173;-79
2022/04/04 08:23:43;;;;;;;5.57;4.40;;;;;;;14.76;29.70;99118.22;5091133;28;41158;-77
2022/04/04 08:26:11;;;;;;;4.97;4.47;;;;;;;15.07;29.95;99117.63;5100609;28;40591;-77
2022/04/04 08:28:38;;;;;;;4.33;3.93;;;;;;;15.66;29.61;99120.13;5073712;28;41746;-80
2022/04/04 08:31:06;;;;;;;4.03;3.67;;;;;;;16.37;28.29;99116.16;5087301;28;42403;-77
2022/04/04 08:33:33;;;;;;;5.27;3.73;;;;;;;17.31;27.34;99128.78;5108089;28;39109;-81
2022/04/04 08:36:03;;;;;;;4.10;3.70;;;;;;;17.80;25.99;99120.03;5089537;28;42414;-80
2022/04/04 08:38:32;;;;;;;3.97;3.50;;;;;;;18.15;26.30;99123.09;5091943;28;42792;-79
2022/04/04 08:41:04;;;;;;;5.40;4.03;;;;;;;18.79;25.28;99122.63;5089401;28;41352;-82
2022/04/04 08:43:35;;;;;;;4.53;4.13;;;;;;;19.62;24.06;99126.50;5121853;27;40964;-83
2022/04/04 08:46:05;;;;;;;3.87;3.57;;;;;;;20.52;23.15;99123.13;5106737;28;42050;-79
2022/04/04 08:48:33;;;;;;;4.77;3.60;;;;;;;20.85;21.94;99129.66;5091985;28;43687;-80
2022/04/04 08:51:00;;;;;;;3.53;3.23;;;;;;;20.29;22.69;99114.56;5072619;28;42631;-80
2022/04/04 08:53:30;;;;;;;3.80;3.40;;;;;;;20.50;23.14;99100.91;5090335;28;39379;-83
2022/04/04 08:55:58;;;;;;;3.50;3.20;;;;;;;21.24;21.99;99085.25;5073886;28;43539;-81
2022/04/04 08:58:26;;;;;;;3.60;3.30;;;;;;;22.63;21.45;99108.25;5099544;28;42925;-85
2022/04/04 09:00:54;;;;;;;3.67;3.20;;;;;;;22.82;20.73;99091.81;5090568;28;42360;-81
2022/04/04 09:03:23;;;;;;;3.50;3.20;;;;;;;22.71;20.08;99116.41;5090525;28;39174;-83
2022/04/04 09:05:52;;;;;;;3.67;3.37;;;;;;;23.13;19.93;99106.31;5072076;28;41952;-84
2022/04/04 09:08:20;;;;;;;3.80;3.43;;;;;;;23.62;19.22;99108.97;5090446;28;42754;-82
2022/04/04 09:10:54;;;;;;;3.50;3.20;;;;;;;23.37;19.81;99077.59;5072529;28;41031;-84
2022/04/04 09:13:24;;;;;;;3.43;3.13;;;;;;;23.69;19.32;99088.34;5084018;28;39872;-83
2022/04/04 09:15:58;;;;;;;4.30;3.30;;;;;;;24.13;18.68;99085.13;5069081;28;41704;-82
2022/04/04 09:18:47;;;;;;;4.53;4.10;;;;;;;23.97;18.48;99092.31;5073236;28;43236;-86
2022/04/04 09:21:31;;;;;;;4.03;3.53;;;;;;;23.60;18.39;99087.53;5072399;28;42426;-85
2022/04/04 09:24:02;;;;;;;3.70;3.40;;;;;;;23.27;19.63;99070.50;5073490;28;39742;-82
2022/04/04 09:26:34;;;;;;;3.73;3.40;;;;;;;22.16;20.35;99058.41;5071850;28;40832;-88
2022/04/04 09:29:03;;;;;;;3.33;3.03;;;;;;;21.14;21.04;99036.81;5076644;28;42606;-85
2022/04/04 09:31:31;;;;;;;3.33;3.03;;;;;;;20.73;21.51;99026.75;5093233;28;42395;-86
2022/04/04 09:34:01;;;;;;;2.90;2.70;;;;;;;20.77;21.19;99036.22;5076547;28;39955;-82
2022/04/04 09:36:29;;;;;;;3.87;3.10;;;;;;;21.02;21.28;99023.75;5081954;28;40541;-87
2022/04/04 09:39:03;;;;;;;4.00;3.60;;;;;;;21.43;20.89;99032.97;5097035;28;41483;-84
2022/04/04 09:41:33;;;;;;;3.57;2.57;;;;;;;21.82;21.31;99031.47;5090255;28;42442;-87
2022/04/04 09:44:03;;;;;;;3.53;3.23;;;;;;;21.48;20.66;99014.50;5076380;28;39113;-85
2022/04/04 09:46:35;;;;;;;3.13;2.83;;;;;;;20.95;21.64;99001.19;5092447;28;43794;-86
2022/04/04 09:49:08;;;;;;;3.50;3.20;;;;;;;20.72;21.95;99003.53;5128006;27;42917;-86
2022/04/04 09:51:46;;;;;;;3.43;3.13;;;;;;;20.17;22.19;99005.53;5075319;28;42577;-85
2022/04/04 09:54:17;;;;;;;3.50;3.20;;;;;;;19.49;22.20;98957.59;5074712;28;40628;-85
2022/04/04 09:56:47;;;;;;;3.80;3.50;;;;;;;19.12;23.16;98970.16;5092740;28;41712;-85
2022/04/04 09:59:17;;;;;;;3.53;3.23;;;;;;;18.55;22.97;98961.22;5093475;28;43469;-83
2022/04/04 10:01:46;;;;;;;3.47;3.20;;;;;;;18.10;23.99;98977.06;5074575;28;41489;-87
2022/04/04 10:04:14;;;;;;;3.97;3.43;;;;;;;18.04;24.25;98962.41;5076384;28;40149;-82
2022/04/04 10:06:45;;;;;;;3.53;3.10;;;;;;;18.12;25.12;98942.94;5089643;28;41605;-84
2022/04/04 10:09:12;;;;;;;3.50;3.20;;;;;;;17.81;24.82;98951.09;5075661;28;42191;-84
2022/04/04 10:11:41;;;;;;;3.67;3.03;;;;;;;17.80;25.13;98964.66;5091299;28;42355;-84
2022/04/04 10:14:11;;;;;;;3.60;3.00;;;;;;;17.76;24.19;98942.63;5076097;28;39133;-84
2022/04/04 10:16:39;;;;;;;2.87;2.63;;;;;;;17.89;24.27;98929.81;5091544;28;41856;-85
2022/04/04 10:19:11;;;;;;;4.03;3.00;;;;;;;18.68;24.55;98926.94;5092852;28;44156;-82
2022/04/04 10:21:39;;;;;;;3.17;2.87;;;;;;;19.64;23.04;98936.44;5092968;28;41659;-82
2022/04/04 10:24:11;;;;;;;2.73;2.53;;;;;;;20.34;22.78;98932.06;5092684;28;39115;-82
2022/04/04 10:26:39;;;;;;;3.27;2.70;;;;;;;20.63;22.06;98921.06;5091517;28;42162;-84
2022/04/04 10:29:14;;;;;;;3.53;3.03;;;;;;;21.24;21.60;98938.94;5093713;28;42469;-87
2022/04/04 10:31:47;;;;;;;3.50;3.10;;;;;;;21.99;21.00;98916.44;5091301;28;41067;-82
2022/04/04 10:34:17;;;;;;;2.97;2.63;;;;;;;22.54;19.86;98905.81;5090815;28;39762;-84
2022/04/04 10:36:56;;;;;;;3.00;2.60;;;;;;;22.69;19.89;98924.03;5090702;28;41823;-82
2022/04/04 10:39:44;;;;;;;3.10;2.80;;;;;;;22.22;20.62;98916.63;5074908;28;43125;-81
2022/04/04 10:42:26;;;;;;;4.00;2.90;;;;;;;22.48;19.75;98916.47;5091111;28;42278;-81
2022/04/04 10:45:05;;;;;;;3.47;3.17;;;;;;;23.55;19.19;98911.47;5092529;28;39763;-80
2022/04/04 10:47:34;;;;;;;3.57;2.63;;;;;;;23.24;19.56;98908.69;5100901;28;42531;-80
2022/04/04 10:50:19;;;;;;;3.20;3.00;;;;;;;23.69;18.74;98901.75;5095222;28;42624;-81
2022/04/04 10:52:47;;;;;;;3.37;3.17;;;;;;;24.06;18.39;98897.44;5101970;28;41055;-83
2022/04/04 10:55:48;;;;;;;3.77;3.47;;;;;;;24.21;18.83;98882.13;5146189;22;40052;-84
2022/04/04 10:58:21;;;;;;;3.27;2.97;;;;;;;23.22;19.81;98870.22;5047710;28;42362;-83
2022/04/04 11:01:02;;;;;;;3.87;3.30;;;;;;;22.98;19.71;98883.81;5036612;28;41843;-83
2022/04/04 11:03:32;;;;;;;4.20;3.13;;;;;;;22.37;20.03;98865.53;5055545;28;44479;-83
2022/04/04 11:09:22;;;;;;;3.20;2.87;;;;;;;22.11;20.20;98868.41;5035703;28;41071;-82
2022/04/04 11:11:54;;;;;;;3.50;3.20;;;;;;;22.11;19.99;98844.13;5017294;28;42619;-88
2022/04/04 11:14:46;;;;;;;3.13;2.80;;;;;;;23.21;19.63;98859.59;5035015;28;41430;-85
2022/04/04 11:17:23;;;;;;;3.10;2.90;;;;;;;24.50;18.90;98841.59;5016149;28;38944;-82
2022/04/04 11:19:54;;;;;;;3.43;3.13;;;;;;;26.05;18.03;98838.56;5030470;28;42713;-81
2022/04/04 11:22:23;;;;;;;2.53;2.33;;;;;;;27.23;16.51;98832.28;5026183;28;42084;-86
2022/04/04 11:24:52;;;;;;;3.07;2.83;;;;;;;26.72;15.66;98848.91;5035267;28;41477;-84
2022/04/04 11:27:21;;;;;;;2.97;2.77;;;;;;;25.89;17.11;98829.84;5043254;28;39818;-85
2022/04/04 11:29:49;;;;;;;2.97;2.50;;;;;;;24.41;17.63;98810.22;5014598;28;40752;-87
2022/04/04 11:32:28;;;;;;;3.67;3.37;;;;;;;23.40;18.72;98798.81;5011647;28;41696;-84
2022/04/04 11:34:58;;;;;;;3.43;3.13;;;;;;;23.16;18.86;98806.06;5032703;28;41706;-83
2022/04/04 11:37:27;;;;;;;3.83;3.40;;;;;;;23.03;19.27;98797.69;5022016;28;39055;-84
2022/04/04 11:40:03;;;;;;;3.53;3.23;;;;;;;22.99;19.59;98790.97;5049335;28;40496;-80
2022/04/04 11:42:32;;;;;;;3.03;2.80;;;;;;;23.51;19.03;98790.34;5030672;28;41525;-80
2022/04/04 11:45:03;;;;;;;3.80;3.40;;;;;;;23.53;18.37;98796.41;5048254;28;41975;-81
2022/04/04 11:47:33;;;;;;;3.40;3.10;;;;;;;23.56;19.15;98777.13;5035895;28;40286;-82